Time;durP1;ratioP1;P1;durP2;ratioP2;P2;SDS_P1;SDS_P2;PMS_P1;PMS_P2;Temp;Humidity;BMP_temperature;BMP_pressure;BME280_temperature;BME280_humidity;BME280_pressure;Samples;Min_cycle;Max_cycle;Signal;HPM_P1;HPM_P2
2021/04/03 00:00:12;;;;;;;11.07;5.53;;;6.10;99.90;;;;;;5093023;28;21020;-80
2021/04/03 00:02:39;;;;;;;9.57;4.50;;;6.20;99.90;;;;;;5093521;28;20448;-80
2021/04/03 00:05:07;;;;;;;7.33;4.50;;;6.30;99.50;;;;;;5093393;28;20474;-80
2021/04/03 00:07:33;;;;;;;8.20;5.00;;;6.30;99.30;;;;;;5093314;28;20538;-80
2021/04/03 00:10:00;;;;;;;8.53;5.00;;;6.30;99.40;;;;;;5093318;28;20491;-80
2021/04/03 00:12:27;;;;;;;5.00;4.30;;;6.20;99.50;;;;;;5093261;28;20803;-80
2021/04/03 00:14:53;;;;;;;6.77;4.50;;;6.30;98.80;;;;;;5093180;28;20451;-80
2021/04/03 00:17:19;;;;;;;5.47;4.20;;;6.30;98.70;;;;;;5092904;28;20451;-80
2021/04/03 00:19:46;;;;;;;8.17;3.50;;;6.30;98.90;;;;;;5093343;28;20459;-80
2021/04/03 00:22:12;;;;;;;7.20;5.23;;;6.30;98.30;;;;;;5093075;28;20800;-80
2021/04/03 00:24:38;;;;;;;10.17;5.13;;;6.30;97.30;;;;;;5093168;28;20543;-80
2021/04/03 00:27:07;;;;;;;9.10;4.80;;;6.20;96.70;;;;;;5092844;28;20435;-80
2021/04/03 00:29:33;;;;;;;8.13;4.60;;;6.20;96.50;;;;;;5092563;28;20529;-80
2021/04/03 00:31:59;;;;;;;8.50;4.60;;;6.20;95.80;;;;;;5093026;28;20996;-80
2021/04/03 00:34:26;;;;;;;7.50;5.10;;;6.20;96.40;;;;;;5092718;28;20429;-80
2021/04/03 00:36:52;;;;;;;4.80;4.30;;;6.10;96.50;;;;;;5092956;28;20444;-79
2021/04/03 00:39:18;;;;;;;5.80;4.10;;;6.20;95.30;;;;;;5092616;28;21003;-80
2021/04/03 00:41:44;;;;;;;7.50;4.77;;;6.10;94.80;;;;;;5095004;28;20800;-80
2021/04/03 00:44:12;;;;;;;10.47;4.67;;;6.10;94.80;;;;;;5097163;28;20436;-80
2021/04/03 00:46:38;;;;;;;11.83;4.80;;;5.90;94.70;;;;;;5096793;28;20476;-80
2021/04/03 00:49:06;;;;;;;8.03;4.93;;;5.90;95.10;;;;;;5096974;28;20471;-80
2021/04/03 00:51:33;;;;;;;9.23;5.20;;;5.90;94.80;;;;;;5096888;28;20476;-80
2021/04/03 00:54:00;;;;;;;6.80;4.50;;;5.90;94.60;;;;;;5096943;28;20511;-80
2021/04/03 00:56:26;;;;;;;8.43;5.17;;;5.90;94.70;;;;;;5096634;28;20928;-83
2021/04/03 00:58:53;;;;;;;10.03;4.53;;;5.90;93.90;;;;;;5096975;28;20471;-84
2021/04/03 01:01:21;;;;;;;7.17;4.20;;;5.90;93.80;;;;;;5096711;28;20446;-84
2021/04/03 01:03:47;;;;;;;6.67;4.67;;;5.80;94.20;;;;;;5096916;28;20444;-82
2021/04/03 01:06:13;;;;;;;6.60;4.30;;;5.80;94.00;;;;;;5096671;28;20448;-84
2021/04/03 01:08:40;;;;;;;5.70;4.37;;;5.80;94.00;;;;;;5097062;28;20836;-84
2021/04/03 01:11:08;;;;;;;9.80;5.20;;;5.80;93.60;;;;;;5096494;28;20994;-84
2021/04/03 01:13:50;;;;;;;7.27;4.70;;;5.90;93.00;;;;;;5087156;28;20973;-84
2021/04/03 01:16:21;;;;;;;7.53;4.60;;;5.80;92.80;;;;;;5096676;28;20451;-84
2021/04/03 01:19:09;;;;;;;6.63;4.67;;;5.80;93.00;;;;;;5096518;28;20463;-84
2021/04/03 01:22:04;;;;;;;6.17;3.97;;;5.70;93.00;;;;;;5096624;28;20485;-83
2021/04/03 01:24:41;;;;;;;7.03;5.20;;;5.70;92.90;;;;;;5096645;28;20493;-83
2021/04/03 01:27:15;;;;;;;6.13;4.83;;;5.60;93.20;;;;;;5088033;28;20856;-84
2021/04/03 01:30:06;;;;;;;8.60;4.47;;;5.70;93.20;;;;;;5096303;28;20483;-84
2021/04/03 01:32:41;;;;;;;7.60;4.87;;;5.60;93.50;;;;;;5096154;28;20916;-83
2021/04/03 01:35:12;;;;;;;8.03;4.47;;;5.70;92.80;;;;;;5095913;28;20918;-83
2021/04/03 01:37:43;;;;;;;5.70;4.17;;;5.60;93.00;;;;;;5087225;28;20447;-84
2021/04/03 01:40:13;;;;;;;7.67;4.70;;;5.70;92.70;;;;;;5096298;28;20466;-84
2021/04/03 01:42:41;;;;;;;6.37;4.20;;;5.60;92.90;;;;;;5096188;28;20847;-84
2021/04/03 01:45:09;;;;;;;11.00;5.13;;;5.70;92.50;;;;;;5096205;28;20448;-83
2021/04/03 01:47:39;;;;;;;7.63;5.13;;;5.70;92.50;;;;;;5095636;28;20537;-84
2021/04/03 01:50:07;;;;;;;10.13;5.30;;;5.70;92.30;;;;;;5095561;28;20483;-84
2021/04/03 01:52:34;;;;;;;6.07;4.10;;;5.70;93.00;;;;;;5095537;28;20939;-84
2021/04/03 01:55:07;;;;;;;11.57;4.70;;;5.60;92.60;;;;;;5095835;28;20454;-80
2021/04/03 01:57:35;;;;;;;7.40;4.90;;;5.70;92.50;;;;;;5095759;28;20448;-80
2021/04/03 02:00:08;;;;;;;8.50;4.33;;;5.60;93.10;;;;;;5095493;28;20475;-80
2021/04/03 02:02:37;;;;;;;9.13;4.60;;;5.60;93.20;;;;;;5095419;28;20424;-80
2021/04/03 02:05:04;;;;;;;11.57;5.10;;;5.60;92.90;;;;;;5095202;28;20444;-80
2021/04/03 02:07:31;;;;;;;7.60;4.53;;;5.60;93.10;;;;;;5095535;28;20497;-80
2021/04/03 02:10:00;;;;;;;6.83;4.10;;;5.60;93.20;;;;;;5095052;28;20464;-80
2021/04/03 02:12:28;;;;;;;6.70;4.17;;;5.60;93.30;;;;;;5086201;28;20825;-80
2021/04/03 02:14:55;;;;;;;10.33;4.50;;;5.60;93.10;;;;;;5095312;28;20457;-80
2021/04/03 02:17:22;;;;;;;7.10;4.40;;;5.60;93.30;;;;;;5095329;28;20459;-80
2021/04/03 02:19:49;;;;;;;11.50;3.87;;;5.60;93.00;;;;;;5094859;28;20468;-80
2021/04/03 02:22:16;;;;;;;6.93;4.13;;;5.60;92.50;;;;;;5094926;28;20451;-80
2021/04/03 02:24:43;;;;;;;7.07;4.37;;;5.60;92.80;;;;;;5095430;28;20494;-80
2021/04/03 02:27:10;;;;;;;8.67;4.67;;;5.50;93.30;;;;;;5095138;28;20440;-80
2021/04/03 02:29:36;;;;;;;6.90;4.87;;;5.40;93.10;;;;;;5095074;28;20555;-80
2021/04/03 02:32:05;;;;;;;9.53;4.93;;;5.40;93.50;;;;;;5094755;28;20990;-80
2021/04/03 02:34:32;;;;;;;10.97;4.60;;;5.40;93.70;;;;;;5095132;28;20473;-80
2021/04/03 02:36:58;;;;;;;9.90;3.93;;;5.40;93.30;;;;;;5095068;28;20455;-80
2021/04/03 02:39:25;;;;;;;10.80;4.17;;;5.40;93.20;;;;;;5094881;28;20456;-80
2021/04/03 02:41:58;;;;;;;6.80;4.43;;;5.30;94.00;;;;;;5094611;28;20455;-80
2021/04/03 02:44:30;;;;;;;5.13;3.77;;;5.20;93.40;;;;;;5095140;28;20440;-80
2021/04/03 02:47:03;;;;;;;6.43;3.87;;;5.20;93.40;;;;;;5085690;28;20558;-80
2021/04/03 02:49:38;;;;;;;6.40;5.03;;;5.20;93.70;;;;;;5094521;28;20456;-80
2021/04/03 02:52:07;;;;;;;5.27;4.07;;;5.20;93.60;;;;;;5094892;28;20471;-80
2021/04/03 02:54:34;;;;;;;6.57;3.97;;;5.30;93.30;;;;;;5095098;28;20440;-80
2021/04/03 02:57:02;;;;;;;4.47;4.00;;;5.30;93.10;;;;;;5094410;28;20492;-80
2021/04/03 02:59:32;;;;;;;6.93;4.20;;;5.30;93.30;;;;;;5094346;28;20455;-80
2021/04/03 03:02:00;;;;;;;6.10;3.90;;;5.30;93.50;;;;;;5094609;28;20451;-80
2021/04/03 03:04:28;;;;;;;8.33;4.37;;;5.30;93.50;;;;;;5093772;28;20436;-80
2021/04/03 03:06:57;;;;;;;8.57;4.10;;;5.30;93.40;;;;;;5094484;28;20444;-80
2021/04/03 03:09:24;;;;;;;6.40;4.10;;;5.30;93.60;;;;;;5094052;28;20822;-83
2021/04/03 03:11:54;;;;;;;7.90;4.33;;;5.30;93.70;;;;;;5094276;28;20479;-84
2021/04/03 03:14:23;;;;;;;11.13;3.53;;;5.20;93.80;;;;;;5094480;28;20441;-84
2021/04/03 03:16:51;;;;;;;6.80;4.97;;;5.20;93.60;;;;;;5093951;28;20440;-84
2021/04/03 03:19:20;;;;;;;7.63;3.90;;;5.20;93.90;;;;;;5094296;28;20452;-84
2021/04/03 03:21:47;;;;;;;5.90;3.47;;;5.20;93.90;;;;;;5094356;28;20432;-83
2021/04/03 03:24:15;;;;;;;6.70;4.07;;;5.10;94.40;;;;;;5093977;28;20482;-83
2021/04/03 03:26:41;;;;;;;8.80;4.40;;;5.10;94.80;;;;;;5094187;28;20448;-83
2021/04/03 03:29:11;;;;;;;5.40;4.50;;;5.10;95.00;;;;;;5093656;28;20931;-83
2021/04/03 03:31:38;;;;;;;9.90;3.70;;;5.00;95.00;;;;;;5093881;28;20480;-83
2021/04/03 03:34:04;;;;;;;12.20;5.17;;;5.00;95.50;;;;;;5093627;28;20448;-83
2021/04/03 03:36:31;;;;;;;14.03;3.90;;;5.00;95.50;;;;;;5093633;28;21000;-83
2021/04/03 03:38:58;;;;;;;6.90;4.20;;;5.00;95.60;;;;;;5093765;28;20528;-83
2021/04/03 03:41:26;;;;;;;4.30;3.40;;;5.00;95.60;;;;;;5093553;28;20947;-83
2021/04/03 03:43:52;;;;;;;6.83;4.03;;;5.00;95.80;;;;;;5093435;28;20446;-83
2021/04/03 03:46:19;;;;;;;11.50;4.53;;;4.90;96.10;;;;;;5093327;28;20508;-82
2021/04/03 03:48:45;;;;;;;5.10;3.60;;;4.90;96.30;;;;;;5093328;28;20467;-83
2021/04/03 03:51:12;;;;;;;4.90;3.60;;;4.90;96.60;;;;;;5093332;28;20983;-83
2021/04/03 03:53:38;;;;;;;9.93;4.50;;;4.80;97.00;;;;;;5093833;28;20444;-83
2021/04/03 03:56:05;;;;;;;8.33;3.93;;;4.70;97.10;;;;;;5093582;28;20448;-82
2021/04/03 03:58:32;;;;;;;9.27;4.90;;;4.60;97.30;;;;;;5093199;28;20456;-83
2021/04/03 04:00:59;;;;;;;6.67;4.33;;;4.50;97.70;;;;;;5093206;28;20501;-83
2021/04/03 04:03:25;;;;;;;14.90;4.20;;;4.40;98.00;;;;;;5093444;28;20448;-83
2021/04/03 04:05:51;;;;;;;5.93;4.17;;;4.40;98.20;;;;;;5093183;28;20436;-83
2021/04/03 04:08:18;;;;;;;9.70;4.17;;;4.40;98.20;;;;;;5093408;28;20448;-83
2021/04/03 04:10:45;;;;;;;7.37;4.33;;;4.60;98.40;;;;;;5093239;28;20562;-83
2021/04/03 04:13:11;;;;;;;10.17;4.53;;;4.50;98.50;;;;;;5093283;28;20497;-83
2021/04/03 04:15:38;;;;;;;6.67;4.90;;;4.50;98.70;;;;;;5092239;28;20455;-83
2021/04/03 04:18:05;;;;;;;7.90;4.20;;;4.50;98.70;;;;;;5092874;28;20938;-79
2021/04/03 04:20:32;;;;;;;5.80;4.50;;;4.50;98.90;;;;;;5092954;28;20455;-79
2021/04/03 04:22:58;;;;;;;6.60;4.00;;;4.50;99.20;;;;;;5093203;28;20865;-79
2021/04/03 04:25:25;;;;;;;7.87;4.37;;;4.40;99.20;;;;;;5092978;28;20448;-78
2021/04/03 04:27:51;;;;;;;6.90;4.90;;;4.30;99.30;;;;;;5092739;28;20444;-78
2021/04/03 04:30:18;;;;;;;7.30;4.60;;;4.30;99.40;;;;;;5092936;28;20479;-79
2021/04/03 04:32:46;;;;;;;8.37;4.00;;;4.20;99.60;;;;;;5092973;28;20444;-79
2021/04/03 04:35:13;;;;;;;9.43;4.73;;;4.10;99.70;;;;;;5092837;28;20432;-79
2021/04/03 04:37:42;;;;;;;4.83;3.77;;;4.10;99.90;;;;;;5092692;28;20444;-79
2021/04/03 04:40:10;;;;;;;7.23;3.93;;;4.00;99.90;;;;;;5092843;28;20463;-78
2021/04/03 04:42:39;;;;;;;5.03;4.20;;;4.00;99.90;;;;;;5092677;28;20485;-79
2021/04/03 04:45:07;;;;;;;7.93;4.20;;;3.90;99.90;;;;;;5092856;28;20448;-79
2021/04/03 04:47:33;;;;;;;5.70;4.00;;;3.90;99.90;;;;;;5092603;28;20480;-79
2021/04/03 04:50:00;;;;;;;6.43;4.10;;;3.90;99.90;;;;;;5092579;28;20456;-79
2021/04/03 04:52:27;;;;;;;5.83;3.70;;;3.80;99.90;;;;;;5092604;28;20947;-79
2021/04/03 04:54:53;;;;;;;6.03;4.57;;;3.90;99.90;;;;;;5092773;28;20451;-79
2021/04/03 04:57:19;;;;;;;6.83;4.50;;;3.90;99.90;;;;;;5092495;28;20461;-79
2021/04/03 04:59:45;;;;;;;7.47;4.50;;;3.90;99.90;;;;;;5092128;28;21010;-79
2021/04/03 05:02:12;;;;;;;5.83;4.17;;;4.00;99.90;;;;;;5092603;28;20440;-79
2021/04/03 05:04:38;;;;;;;8.80;4.23;;;4.00;99.90;;;;;;5092589;28;20448;-79
2021/04/03 05:07:05;;;;;;;5.33;3.90;;;4.10;99.90;;;;;;5092374;28;20458;-79
2021/04/03 05:09:32;;;;;;;11.73;4.27;;;4.20;99.90;;;;;;5092585;28;20468;-79
2021/04/03 05:11:58;;;;;;;10.57;4.13;;;4.20;99.90;;;;;;5092769;28;20472;-79
2021/04/03 05:14:24;;;;;;;8.13;4.80;;;4.30;99.90;;;;;;5092374;28;20943;-79
2021/04/03 05:16:50;;;;;;;5.90;3.77;;;4.20;99.90;;;;;;5092263;28;20432;-79
2021/04/03 05:19:16;;;;;;;10.13;3.93;;;4.30;99.90;;;;;;5092488;28;20486;-79
2021/04/03 05:21:43;;;;;;;7.17;4.23;;;4.30;99.90;;;;;;5092727;28;20449;-78
2021/04/03 05:24:10;;;;;;;6.97;4.33;;;4.30;99.90;;;;;;5092511;28;20440;-79
2021/04/03 05:26:36;;;;;;;4.77;3.77;;;4.30;99.90;;;;;;5092497;28;20436;-79
2021/04/03 05:29:03;;;;;;;6.87;4.53;;;4.40;99.90;;;;;;5096203;28;20522;-79
2021/04/03 05:31:29;;;;;;;6.20;4.10;;;4.40;99.90;;;;;;5095823;28;21015;-79
2021/04/03 05:33:55;;;;;;;7.00;4.30;;;4.50;99.90;;;;;;5096103;28;20444;-79
2021/04/03 05:36:22;;;;;;;5.40;3.47;;;4.50;99.90;;;;;;5095911;28;20440;-79
2021/04/03 05:38:48;;;;;;;7.67;3.87;;;4.50;99.90;;;;;;5096140;28;20459;-79
2021/04/03 05:41:15;;;;;;;6.67;3.57;;;4.60;99.90;;;;;;5095872;28;20436;-79
2021/04/03 05:43:46;;;;;;;9.27;3.80;;;4.60;99.90;;;;;;5096108;28;20451;-79
2021/04/03 05:46:13;;;;;;;6.50;3.90;;;4.60;99.90;;;;;;5096083;28;20443;-79
2021/04/03 05:48:40;;;;;;;7.93;4.90;;;4.70;99.90;;;;;;5095991;28;20476;-79
2021/04/03 05:51:06;;;;;;;4.40;2.87;;;4.70;99.90;;;;;;5095672;28;20846;-79
2021/04/03 05:53:35;;;;;;;5.57;3.90;;;4.70;99.90;;;;;;5095851;28;20451;-79
2021/04/03 05:56:01;;;;;;;7.47;3.63;;;4.70;99.90;;;;;;5095837;28;20459;-79
2021/04/03 05:58:28;;;;;;;6.00;3.53;;;4.70;99.90;;;;;;5095461;28;20955;-79
2021/04/03 06:00:56;;;;;;;8.13;5.20;;;4.70;99.90;;;;;;5095710;28;20517;-79
2021/04/03 06:03:22;;;;;;;9.13;3.87;;;4.70;99.90;;;;;;5095805;28;20808;-79
2021/04/03 06:05:49;;;;;;;9.90;3.90;;;4.80;99.90;;;;;;5095324;28;20939;-79
2021/04/03 06:08:15;;;;;;;4.40;3.80;;;5.00;99.90;;;;;;5095379;28;20486;-79
2021/04/03 06:10:42;;;;;;;5.87;3.50;;;5.10;99.40;;;;;;5095571;28;20476;-80
2021/04/03 06:13:17;;;;;;;4.63;3.23;;;5.10;98.90;;;;;;5095162;28;20878;-80
2021/04/03 06:15:44;;;;;;;6.50;4.10;;;5.20;98.90;;;;;;5095163;28;20436;-79
2021/04/03 06:18:12;;;;;;;7.87;3.93;;;5.30;98.90;;;;;;5095277;28;20436;-79
2021/04/03 06:20:40;;;;;;;4.83;3.70;;;5.40;98.50;;;;;;5095393;28;20447;-79
2021/04/03 06:23:07;;;;;;;10.40;3.33;;;5.60;98.10;;;;;;5095368;28;20454;-80
2021/04/03 06:25:53;;;;;;;4.50;3.90;;;5.60;97.70;;;;;;5095260;28;20440;-80
2021/04/03 06:28:26;;;;;;;5.37;4.07;;;5.70;98.10;;;;;;5085680;28;20447;-79
2021/04/03 06:30:57;;;;;;;6.20;3.40;;;5.70;97.30;;;;;;5094972;28;20490;-79
2021/04/03 06:33:23;;;;;;;7.80;4.67;;;5.90;96.90;;;;;;5094860;28;20440;-79
2021/04/03 06:36:06;;;;;;;3.90;3.50;;;6.50;95.80;;;;;;5095163;28;20455;-79
2021/04/03 06:38:33;;;;;;;6.73;3.80;;;6.70;94.80;;;;;;5094155;28;20464;-79
2021/04/03 06:41:15;;;;;;;7.77;3.63;;;6.80;94.30;;;;;;5094964;28;20962;-79
2021/04/03 06:43:41;;;;;;;4.90;3.10;;;7.40;94.00;;;;;;5096066;28;20435;-78
2021/04/03 06:46:23;;;;;;;6.20;3.17;;;8.10;91.50;;;;;;5096174;28;20454;-79
2021/04/03 06:48:51;;;;;;;5.07;3.73;;;8.10;90.60;;;;;;5096125;28;20467;-78
2021/04/03 06:51:18;;;;;;;8.60;3.10;;;7.90;90.70;;;;;;5095439;28;20529;-79
2021/04/03 06:53:46;;;;;;;5.03;3.07;;;7.80;90.20;;;;;;5095695;28;20440;-79
2021/04/03 06:56:14;;;;;;;4.27;3.30;;;7.70;90.00;;;;;;5094917;28;20432;-80
2021/04/03 06:58:44;;;;;;;3.50;3.20;;;7.60;90.20;;;;;;5095150;28;20471;-80
2021/04/03 07:01:10;;;;;;;7.40;3.13;;;7.60;90.10;;;;;;5095292;28;20458;-79
2021/04/03 07:03:41;;;;;;;2.63;2.43;;;7.60;90.00;;;;;;5095200;28;20436;-79
2021/04/03 07:06:10;;;;;;;5.80;2.80;;;7.60;88.70;;;;;;5094955;28;20440;-79
2021/04/03 07:08:37;;;;;;;2.47;2.27;;;7.50;90.40;;;;;;5094396;28;21009;-79
2021/04/03 07:11:07;;;;;;;3.97;2.53;;;7.60;88.80;;;;;;5094629;28;20533;-79
2021/04/03 07:13:34;;;;;;;4.47;2.77;;;7.60;88.30;;;;;;5094639;28;20448;-79
2021/04/03 07:16:04;;;;;;;5.53;3.30;;;7.70;88.10;;;;;;5094682;28;20454;-79
2021/04/03 07:18:33;;;;;;;6.40;3.40;;;7.60;88.70;;;;;;5094262;28;20452;-79
2021/04/03 07:21:01;;;;;;;2.30;2.10;;;7.80;87.70;;;;;;5094629;28;20432;-79
2021/04/03 07:23:29;;;;;;;2.00;1.80;;;7.90;86.40;;;;;;5094229;28;20535;-79
2021/04/03 07:25:58;;;;;;;3.10;2.80;;;8.20;83.30;;;;;;5094423;28;20461;-79
2021/04/03 07:28:36;;;;;;;6.10;2.63;;;8.20;82.80;;;;;;5094439;28;20470;-79
2021/04/03 07:31:03;;;;;;;4.03;2.37;;;8.40;83.60;;;;;;5094537;28;20492;-78
2021/04/03 07:33:29;;;;;;;2.43;2.23;;;9.00;83.20;;;;;;5094398;28;20447;-78
2021/04/03 07:35:56;;;;;;;3.23;2.90;;;9.80;80.10;;;;;;5094342;28;20455;-79
2021/04/03 07:38:26;;;;;;;4.03;2.60;;;11.00;73.70;;;;;;5093864;28;20958;-79
2021/04/03 07:40:53;;;;;;;2.87;2.57;;;11.80;70.50;;;;;;5094259;28;20440;-79
2021/04/03 07:43:40;;;;;;;2.70;2.23;;;12.20;66.80;;;;;;5094176;28;20452;-79
2021/04/03 07:46:10;;;;;;;3.50;2.77;;;12.00;64.00;;;;;;5094288;28;20447;-79
2021/04/03 07:48:57;;;;;;;2.20;2.00;;;12.10;63.90;;;;;;5093541;28;20491;-79
2021/04/03 07:51:43;;;;;;;3.37;2.57;;;12.20;62.80;;;;;;5093498;28;20556;-79
2021/04/03 07:54:41;;;;;;;4.03;2.70;;;12.30;62.10;;;;;;5094108;28;20419;-79
2021/04/03 07:57:09;;;;;;;2.50;2.30;;;12.60;61.60;;;;;;5094003;28;20455;-79
2021/04/03 07:59:54;;;;;;;1.80;1.70;;;12.60;59.60;;;;;;5093690;28;20471;-79
2021/04/03 08:02:23;;;;;;;2.70;2.47;;;12.80;57.70;;;;;;5093966;28;20432;-79
2021/04/03 08:04:49;;;;;;;4.40;2.20;;;13.00;56.70;;;;;;5094177;28;20793;-79
2021/04/03 08:07:19;;;;;;;2.73;1.80;;;13.00;55.80;;;;;;5093853;28;20455;-79
2021/04/03 08:09:47;;;;;;;2.50;2.27;;;12.50;55.90;;;;;;5093792;28;20533;-79
2021/04/03 08:12:13;;;;;;;4.40;2.73;;;11.80;56.80;;;;;;5093685;28;20479;-79
2021/04/03 08:14:42;;;;;;;3.90;2.00;;;11.20;58.60;;;;;;5093766;28;20443;-79
2021/04/03 08:17:10;;;;;;;2.80;2.47;;;10.90;59.70;;;;;;5094570;28;20433;-79
2021/04/03 08:19:38;;;;;;;3.73;2.50;;;10.60;60.70;;;;;;5093495;28;20475;-79
2021/04/03 08:22:08;;;;;;;5.67;2.20;;;10.30;63.00;;;;;;5093763;28;20440;-79
2021/04/03 08:24:35;;;;;;;2.50;1.97;;;10.20;62.90;;;;;;5093318;28;20440;-79
2021/04/03 08:27:02;;;;;;;3.80;2.10;;;10.10;63.90;;;;;;5093555;28;20428;-79
2021/04/03 08:29:31;;;;;;;2.30;2.10;;;10.00;64.30;;;;;;5093369;28;20467;-78
2021/04/03 08:31:59;;;;;;;4.37;2.30;;;9.70;65.90;;;;;;5093391;28;20484;-79
2021/04/03 08:34:26;;;;;;;2.40;2.20;;;9.80;66.50;;;;;;5093326;28;20459;-78
2021/04/03 08:36:53;;;;;;;3.30;2.07;;;9.70;66.10;;;;;;5093238;28;20560;-79
2021/04/03 08:39:22;;;;;;;5.57;2.70;;;9.60;66.70;;;;;;5093237;28;20719;-79
2021/04/03 08:41:50;;;;;;;4.57;2.20;;;9.70;66.80;;;;;;5093472;28;20509;-80
2021/04/03 08:44:19;;;;;;;2.07;1.87;;;9.50;65.40;;;;;;5093176;28;20505;-79
2021/04/03 08:46:47;;;;;;;3.90;2.13;;;9.50;65.70;;;;;;5093180;28;20475;-80
2021/04/03 08:49:22;;;;;;;2.27;2.07;;;9.50;65.10;;;;;;5093267;28;20472;-79
2021/04/03 08:51:49;;;;;;;4.00;1.80;;;9.60;66.00;;;;;;5093380;28;20459;-79
2021/04/03 08:54:15;;;;;;;3.37;1.53;;;9.70;65.50;;;;;;5093104;28;20825;-79
2021/04/03 08:56:42;;;;;;;6.07;2.17;;;10.00;64.20;;;;;;5093273;28;20531;-80
2021/04/03 08:59:12;;;;;;;4.47;2.20;;;10.20;63.80;;;;;;5092896;28;20497;-79
2021/04/03 09:01:42;;;;;;;4.27;3.90;;;10.20;63.00;;;;;;5093835;28;20440;-79
2021/04/03 09:04:09;;;;;;;5.43;2.57;;;10.30;62.50;;;;;;5097001;28;20846;-79
2021/04/03 09:06:43;;;;;;;3.67;2.30;;;11.00;63.40;;;;;;5097219;28;20447;-79
2021/04/03 09:09:10;;;;;;;4.40;2.30;;;12.30;59.70;;;;;;5097138;28;20525;-79
2021/04/03 09:11:37;;;;;;;5.93;2.00;;;12.50;57.70;;;;;;5096742;28;20838;-80
2021/04/03 09:14:03;;;;;;;2.20;1.60;;;12.50;56.00;;;;;;5096787;28;20915;-79
2021/04/03 09:16:36;;;;;;;2.57;2.10;;;12.90;54.50;;;;;;5096711;28;20946;-79
2021/04/03 09:19:04;;;;;;;3.70;1.80;;;12.80;53.40;;;;;;5096969;28;20468;-80
2021/04/03 09:21:30;;;;;;;1.80;1.57;;;12.40;53.50;;;;;;5096945;28;20428;-79
2021/04/03 09:23:57;;;;;;;3.57;1.70;;;12.00;55.50;;;;;;5096691;28;20438;-79
2021/04/03 09:26:34;;;;;;;3.13;2.20;;;11.70;56.40;;;;;;5096908;28;20423;-79
2021/04/03 09:29:08;;;;;;;1.93;1.70;;;11.80;57.20;;;;;;5096758;28;20467;-79
2021/04/03 09:31:42;;;;;;;2.50;1.93;;;11.40;56.40;;;;;;5096913;28;20478;-79
2021/04/03 09:34:10;;;;;;;2.20;1.73;;;11.10;56.60;;;;;;5097002;28;20436;-79
2021/04/03 09:36:44;;;;;;;2.03;1.80;;;10.60;56.90;;;;;;5096712;28;20424;-79
2021/04/03 09:39:15;;;;;;;1.83;1.60;;;10.40;57.60;;;;;;5096898;28;20470;-79
2021/04/03 09:41:46;;;;;;;1.67;1.57;;;10.40;57.80;;;;;;5096347;28;20841;-79
2021/04/03 09:44:13;;;;;;;1.93;1.63;;;10.30;57.70;;;;;;5096603;28;20493;-79
2021/04/03 09:46:39;;;;;;;3.23;1.43;;;10.70;57.40;;;;;;5096290;28;20471;-79
2021/04/03 09:49:08;;;;;;;2.00;1.30;;;11.20;56.80;;;;;;5096266;28;21016;-79
2021/04/03 09:51:35;;;;;;;5.47;1.80;;;11.70;55.40;;;;;;5096191;28;20455;-79
2021/04/03 09:54:02;;;;;;;2.10;1.57;;;12.60;53.80;;;;;;5096392;28;20435;-79
2021/04/03 09:56:29;;;;;;;1.30;1.20;;;13.70;52.90;;;;;;5096140;28;20601;-79
2021/04/03 09:58:57;;;;;;;1.47;1.20;;;15.10;50.60;;;;;;5096112;28;20479;-79
2021/04/03 10:01:23;;;;;;;1.50;1.40;;;16.40;48.30;;;;;;5096448;28;20443;-79
2021/04/03 10:03:49;;;;;;;1.67;1.57;;;17.70;45.60;;;;;;5095905;28;20827;-79
2021/04/03 10:06:15;;;;;;;1.93;1.37;;;18.60;42.40;;;;;;5096166;28;20438;-79
2021/04/03 10:08:43;;;;;;;2.80;1.90;;;19.60;40.10;;;;;;5095706;28;20975;-79
2021/04/03 10:11:09;;;;;;;2.20;1.50;;;20.00;39.00;;;;;;5095949;28;20476;-79
2021/04/03 10:13:35;;;;;;;1.30;1.20;;;20.30;36.70;;;;;;5094583;28;20432;-79
2021/04/03 10:16:03;;;;;;;4.27;1.90;;;19.60;36.70;;;;;;5096096;28;20417;-81
2021/04/03 10:18:30;;;;;;;2.40;1.70;;;19.50;37.90;;;;;;5095700;28;20460;-79
2021/04/03 10:20:57;;;;;;;2.30;1.40;;;19.00;38.40;;;;;;5095891;28;20417;-79
2021/04/03 10:23:25;;;;;;;1.97;1.50;;;19.10;37.90;;;;;;5095752;28;20432;-79
2021/04/03 10:25:53;;;;;;;1.70;1.60;;;19.00;37.30;;;;;;5095324;28;20443;-78
2021/04/03 10:28:20;;;;;;;2.67;1.30;;;19.00;39.50;;;;;;5095906;28;20447;-79
2021/04/03 10:30:47;;;;;;;4.07;1.57;;;18.40;37.80;;;;;;5095359;28;20509;-79
2021/04/03 10:33:14;;;;;;;2.10;1.57;;;17.70;38.00;;;;;;5096273;28;20483;-82
2021/04/03 10:35:41;;;;;;;2.00;1.60;;;17.50;40.00;;;;;;5095973;28;20884;-82
2021/04/03 10:38:08;;;;;;;3.57;1.87;;;18.20;38.00;;;;;;5095368;28;20408;-81
2021/04/03 10:40:35;;;;;;;3.30;1.80;;;18.20;38.60;;;;;;5095569;28;20559;-81
2021/04/03 10:43:02;;;;;;;2.73;2.40;;;18.40;38.80;;;;;;5095258;28;20413;-82
2021/04/03 10:45:28;;;;;;;1.87;1.67;;;18.00;38.00;;;;;;5095606;28;20478;-80
2021/04/03 10:47:54;;;;;;;1.40;1.30;;;17.70;38.70;;;;;;5094985;28;20483;-79
2021/04/03 10:50:21;;;;;;;1.77;1.60;;;17.40;37.90;;;;;;5094909;28;20463;-79
2021/04/03 10:52:47;;;;;;;1.80;1.70;;;16.60;39.40;;;;;;5094885;28;20513;-79
2021/04/03 10:55:14;;;;;;;1.50;1.40;;;15.90;39.90;;;;;;5094886;28;20845;-79
2021/04/03 10:57:40;;;;;;;1.67;1.23;;;16.00;41.10;;;;;;5094803;28;20799;-79
2021/04/03 11:00:09;;;;;;;1.97;1.73;;;16.30;40.80;;;;;;5094953;28;20464;-79
2021/04/03 11:02:35;;;;;;;2.67;2.00;;;16.40;41.10;;;;;;5095017;28;20433;-79
2021/04/03 11:05:02;;;;;;;2.23;2.03;;;16.70;40.30;;;;;;5095302;28;20409;-81
2021/04/03 11:07:28;;;;;;;2.33;1.90;;;16.20;40.50;;;;;;5094975;28;20433;-80
2021/04/03 11:09:55;;;;;;;3.10;1.67;;;15.90;41.90;;;;;;5094897;28;20526;-80
2021/04/03 11:12:21;;;;;;;2.83;2.17;;;15.60;42.00;;;;;;5094781;28;20475;-79
2021/04/03 11:14:47;;;;;;;2.60;1.47;;;15.30;43.80;;;;;;5094509;28;20949;-79
2021/04/03 11:17:14;;;;;;;4.80;2.10;;;15.30;43.80;;;;;;5094609;28;20448;-79
2021/04/03 11:19:41;;;;;;;2.20;1.60;;;15.20;43.20;;;;;;5094789;28;20471;-80
2021/04/03 11:22:07;;;;;;;4.90;2.13;;;15.00;43.00;;;;;;5094726;28;20432;-78
2021/04/03 11:24:34;;;;;;;2.80;1.77;;;14.80;43.80;;;;;;5094186;28;20433;-79
2021/04/03 11:27:00;;;;;;;3.00;2.00;;;14.70;44.50;;;;;;5094592;28;20485;-78
2021/04/03 11:29:27;;;;;;;2.57;1.60;;;14.50;43.90;;;;;;5094424;28;20468;-79
2021/04/03 11:31:53;;;;;;;3.17;1.43;;;14.40;44.50;;;;;;5094366;28;20471;-79
2021/04/03 11:34:20;;;;;;;4.50;2.10;;;14.30;44.70;;;;;;5094454;28;20436;-78
2021/04/03 11:36:47;;;;;;;4.80;1.70;;;14.20;45.50;;;;;;5095265;28;20773;-78
2021/04/03 11:39:13;;;;;;;2.13;1.70;;;14.20;45.40;;;;;;5094271;28;20472;-78
2021/04/03 11:41:39;;;;;;;2.30;2.00;;;14.40;43.40;;;;;;5094275;28;20884;-79
2021/04/03 11:44:06;;;;;;;2.00;1.57;;;14.20;44.90;;;;;;5094325;28;20473;-79
2021/04/03 11:46:32;;;;;;;2.63;1.70;;;14.00;44.30;;;;;;5094090;28;20436;-79
2021/04/03 11:48:58;;;;;;;1.70;1.60;;;13.70;44.90;;;;;;5094176;28;20471;-79
2021/04/03 11:51:27;;;;;;;4.30;1.60;;;13.40;45.00;;;;;;5094059;28;20476;-79
2021/04/03 11:53:53;;;;;;;3.00;1.43;;;13.30;46.30;;;;;;5094751;28;20490;-79
2021/04/03 11:56:20;;;;;;;3.20;2.00;;;13.50;45.10;;;;;;5094029;28;20436;-79
2021/04/03 11:58:46;;;;;;;2.93;1.90;;;13.50;45.00;;;;;;5094265;28;20480;-81
2021/04/03 12:01:12;;;;;;;1.87;1.67;;;13.40;45.40;;;;;;5094053;28;20425;-81
2021/04/03 12:03:39;;;;;;;2.17;1.90;;;13.30;45.00;;;;;;5093995;28;20436;-81
2021/04/03 12:06:05;;;;;;;2.50;1.70;;;13.20;45.60;;;;;;5094069;28;20860;-81
2021/04/03 12:08:33;;;;;;;1.93;1.20;;;13.00;45.70;;;;;;5093885;28;20464;-81
2021/04/03 12:10:59;;;;;;;2.50;1.80;;;12.90;46.00;;;;;;5093990;28;20440;-81
2021/04/03 12:13:26;;;;;;;2.10;1.40;;;12.80;45.00;;;;;;5093881;28;20444;-81
2021/04/03 12:15:53;;;;;;;1.70;1.60;;;12.70;44.90;;;;;;5093531;28;20433;-81
2021/04/03 12:18:19;;;;;;;2.93;1.20;;;12.40;44.80;;;;;;5093374;28;20432;-82
2021/04/03 12:20:45;;;;;;;2.07;1.47;;;12.30;44.50;;;;;;5093695;28;20424;-81
2021/04/03 12:23:12;;;;;;;2.50;1.50;;;12.20;45.80;;;;;;5093831;28;20436;-81
2021/04/03 12:25:39;;;;;;;2.27;1.60;;;12.40;45.10;;;;;;5093430;28;20900;-81
2021/04/03 12:28:05;;;;;;;2.50;1.33;;;12.60;44.10;;;;;;5093884;28;20437;-81
2021/04/03 12:30:32;;;;;;;2.17;1.50;;;12.60;43.50;;;;;;5094550;28;20562;-81
2021/04/03 12:32:59;;;;;;;3.67;1.57;;;12.50;42.40;;;;;;5093401;28;20472;-81
2021/04/03 12:35:25;;;;;;;2.67;1.50;;;12.30;44.50;;;;;;5093596;28;20408;-82
2021/04/03 12:37:51;;;;;;;1.43;1.33;;;12.10;45.20;;;;;;5092587;28;20446;-81
2021/04/03 12:40:18;;;;;;;1.40;1.30;;;12.00;45.60;;;;;;5093412;28;20555;-81
2021/04/03 12:42:45;;;;;;;1.50;1.40;;;11.90;45.40;;;;;;5093210;28;20440;-81
2021/04/03 12:45:12;;;;;;;2.50;1.30;;;11.80;44.70;;;;;;5093194;28;20943;-81
2021/04/03 12:47:38;;;;;;;2.20;1.20;;;11.70;45.30;;;;;;5093023;28;20472;-82
2021/04/03 12:50:08;;;;;;;2.53;1.90;;;11.50;45.60;;;;;;5093372;28;20467;-81
2021/04/03 12:52:35;;;;;;;3.53;1.57;;;11.40;46.80;;;;;;5093289;28;20483;-81
2021/04/03 12:55:01;;;;;;;3.80;1.90;;;11.40;47.00;;;;;;5093311;28;20444;-81
2021/04/03 12:57:27;;;;;;;4.47;1.80;;;11.30;46.30;;;;;;5093385;28;20837;-81